Time;durP1;ratioP1;P1;durP2;ratioP2;P2;SDS_P1;SDS_P2;PMS_P1;PMS_P2;Temp;Humidity;BMP_temperature;BMP_pressure;BME280_temperature;BME280_humidity;BME280_pressure;Samples;Min_cycle;Max_cycle;Signal;HPM_P1;HPM_P2
2022/05/18 00:02:24;;;;;;;9.05;6.03;;;17.00;99.90;;;;;;4998745;28;20121;-83
2022/05/18 00:04:49;;;;;;;10.95;6.30;;;16.90;99.90;;;;;;4998832;28;20137;-83
2022/05/18 00:07:15;;;;;;;11.68;6.13;;;16.90;99.90;;;;;;4998953;28;20077;-83
2022/05/18 00:09:41;;;;;;;11.38;6.53;;;16.90;99.90;;;;;;4999053;28;20042;-83
2022/05/18 00:12:07;;;;;;;12.15;6.38;;;16.80;99.90;;;;;;4998647;28;20057;-83
2022/05/18 00:14:34;;;;;;;10.30;6.32;;;16.80;99.90;;;;;;4998827;28;20052;-84
2022/05/18 00:17:03;;;;;;;11.27;6.80;;;16.80;99.90;;;;;;4982214;28;20054;-83
2022/05/18 00:19:33;;;;;;;11.55;6.63;;;16.80;99.90;;;;;;5015793;28;20580;-83
2022/05/18 00:21:59;;;;;;;10.70;6.82;;;16.70;99.90;;;;;;5016187;28;20049;-83
2022/05/18 00:24:25;;;;;;;11.15;6.70;;;16.70;99.90;;;;;;4998560;28;20046;-83
2022/05/18 00:26:51;;;;;;;10.98;6.93;;;16.60;99.90;;;;;;4999476;28;20428;-83
2022/05/18 00:29:17;;;;;;;12.10;7.63;;;16.70;99.90;;;;;;4999504;28;20053;-83
2022/05/18 00:31:46;;;;;;;10.75;6.32;;;16.60;99.90;;;;;;4998578;28;20046;-83
2022/05/18 00:34:13;;;;;;;9.45;6.32;;;16.60;99.90;;;;;;4998455;28;20050;-83
2022/05/18 00:36:39;;;;;;;10.73;6.95;;;16.50;99.90;;;;;;5015789;28;20042;-83
2022/05/18 00:39:05;;;;;;;11.20;6.80;;;16.50;99.90;;;;;;4999221;28;20050;-84
2022/05/18 00:41:31;;;;;;;13.65;6.45;;;16.40;99.90;;;;;;5008272;28;20050;-84
2022/05/18 00:43:57;;;;;;;13.73;6.43;;;16.40;99.90;;;;;;4998198;28;20502;-83
2022/05/18 00:46:22;;;;;;;10.55;6.45;;;16.30;99.90;;;;;;4998254;28;20061;-83
2022/05/18 00:48:49;;;;;;;10.32;6.68;;;16.40;99.90;;;;;;5015704;28;20037;-83
2022/05/18 00:51:20;;;;;;;11.15;6.78;;;16.30;99.90;;;;;;5015653;28;20073;-83
2022/05/18 00:54:08;;;;;;;10.50;6.32;;;16.20;99.90;;;;;;4998361;28;20103;-83
2022/05/18 00:56:40;;;;;;;8.93;6.05;;;16.20;99.90;;;;;;4981745;28;20042;-83
2022/05/18 00:59:11;;;;;;;13.15;6.53;;;16.20;99.90;;;;;;4997793;28;20050;-84
2022/05/18 01:01:37;;;;;;;10.23;6.35;;;16.20;99.90;;;;;;4997542;28;20077;-83
2022/05/18 01:04:04;;;;;;;10.88;7.00;;;16.10;99.90;;;;;;4996846;28;20060;-83
2022/05/18 01:06:35;;;;;;;10.32;6.70;;;16.10;99.90;;;;;;4997685;28;20050;-83
2022/05/18 01:09:15;;;;;;;11.45;7.45;;;16.10;99.90;;;;;;5015349;28;20049;-83
2022/05/18 01:11:42;;;;;;;11.38;7.10;;;16.00;99.90;;;;;;4997862;28;19960;-83
2022/05/18 01:14:19;;;;;;;12.23;7.50;;;16.00;99.90;;;;;;4997551;28;20127;-83
2022/05/18 01:16:45;;;;;;;11.60;7.30;;;16.00;99.90;;;;;;4997607;28;20417;-83
2022/05/18 01:19:25;;;;;;;11.40;6.70;;;16.00;99.90;;;;;;5014817;28;20089;-83
2022/05/18 01:22:03;;;;;;;13.82;7.68;;;15.90;99.90;;;;;;5014965;28;20473;-83
2022/05/18 01:24:39;;;;;;;11.07;6.80;;;15.90;99.90;;;;;;4997341;28;20061;-83
2022/05/18 01:27:05;;;;;;;10.98;7.15;;;15.90;99.90;;;;;;5015003;28;20052;-83
2022/05/18 01:29:31;;;;;;;14.05;7.88;;;15.80;99.90;;;;;;4997602;28;20046;-83
2022/05/18 01:32:00;;;;;;;11.77;7.22;;;15.80;99.90;;;;;;4997378;28;20081;-83
2022/05/18 01:34:33;;;;;;;12.52;7.68;;;15.70;99.90;;;;;;4997201;28;20103;-83
2022/05/18 01:36:59;;;;;;;14.77;7.95;;;15.70;99.90;;;;;;4997064;28;20083;-83
2022/05/18 01:39:36;;;;;;;10.30;6.85;;;15.70;99.90;;;;;;4996996;28;20078;-83
2022/05/18 01:42:27;;;;;;;15.35;7.95;;;15.70;99.90;;;;;;5013332;28;20052;-82
2022/05/18 01:44:53;;;;;;;12.95;8.15;;;15.60;99.90;;;;;;5012406;28;20060;-83
2022/05/18 01:47:19;;;;;;;16.40;8.63;;;15.60;99.90;;;;;;4998447;28;20397;-83
2022/05/18 01:49:46;;;;;;;12.43;7.57;;;15.60;99.90;;;;;;5002397;28;20050;-83
2022/05/18 01:52:12;;;;;;;11.73;7.35;;;15.60;99.90;;;;;;5001901;28;20045;-83
2022/05/18 01:54:40;;;;;;;12.40;8.05;;;15.60;99.90;;;;;;4999831;28;20512;-83
2022/05/18 01:57:06;;;;;;;13.25;8.00;;;15.50;99.90;;;;;;4987070;28;20046;-83
2022/05/18 01:59:32;;;;;;;11.40;7.60;;;15.50;99.90;;;;;;4989765;28;20129;-83
2022/05/18 02:01:58;;;;;;;13.85;8.13;;;15.60;99.90;;;;;;5017590;28;20479;-83
2022/05/18 02:04:23;;;;;;;11.35;7.47;;;15.50;99.90;;;;;;4997671;28;20129;-83
2022/05/18 02:06:49;;;;;;;15.48;8.38;;;15.40;99.90;;;;;;4997850;28;20056;-83
2022/05/18 02:09:16;;;;;;;11.23;7.25;;;15.40;99.90;;;;;;5014691;28;20050;-83
2022/05/18 02:11:43;;;;;;;13.85;7.95;;;15.50;99.90;;;;;;5014643;28;20060;-83
2022/05/18 02:14:09;;;;;;;10.88;8.05;;;15.50;99.90;;;;;;4997204;28;20477;-83
2022/05/18 02:16:36;;;;;;;14.05;7.95;;;15.50;99.90;;;;;;4996641;28;20050;-83
2022/05/18 02:19:01;;;;;;;13.75;8.40;;;15.40;99.90;;;;;;4993170;28;20124;-83
2022/05/18 02:21:27;;;;;;;15.48;8.52;;;15.40;99.90;;;;;;4993115;28;20482;-83
2022/05/18 02:23:53;;;;;;;12.65;8.30;;;15.40;99.90;;;;;;4993343;28;20097;-83
2022/05/18 02:26:19;;;;;;;14.60;8.70;;;15.40;99.90;;;;;;4993269;28;20093;-83
2022/05/18 02:28:45;;;;;;;14.40;8.57;;;15.40;99.90;;;;;;4994551;28;20097;-83
2022/05/18 02:31:12;;;;;;;12.63;8.27;;;15.40;99.90;;;;;;4993174;28;20137;-83
2022/05/18 02:33:38;;;;;;;14.43;8.57;;;15.30;99.90;;;;;;4992988;28;20549;-83
2022/05/18 02:36:06;;;;;;;12.75;8.45;;;15.30;99.90;;;;;;4976915;28;20133;-83
2022/05/18 02:38:32;;;;;;;14.25;8.70;;;15.20;99.90;;;;;;4994419;28;20057;-83
2022/05/18 02:40:59;;;;;;;14.25;8.65;;;15.10;99.90;;;;;;4993316;28;20051;-83
2022/05/18 02:43:25;;;;;;;15.73;9.13;;;15.10;99.90;;;;;;4993088;28;20050;-83
2022/05/18 02:46:01;;;;;;;14.07;9.00;;;15.10;99.90;;;;;;4993365;28;20544;-83
2022/05/18 02:48:27;;;;;;;15.68;8.55;;;15.00;99.90;;;;;;4992965;28;20508;-83
2022/05/18 02:50:52;;;;;;;14.63;8.77;;;15.00;99.90;;;;;;4993193;28;20042;-83
2022/05/18 02:53:18;;;;;;;16.35;9.55;;;14.90;99.90;;;;;;4992941;28;20050;-83
2022/05/18 02:58:27;;;;;;;15.90;9.65;;;14.90;99.90;;;;;;4993764;28;20108;-83
2022/05/18 03:00:53;;;;;;;15.45;9.32;;;14.80;99.90;;;;;;4994042;28;20050;-83
2022/05/18 03:03:19;;;;;;;13.45;8.80;;;14.80;99.90;;;;;;4995929;28;20074;-83
2022/05/18 03:05:45;;;;;;;15.35;9.68;;;14.90;99.90;;;;;;5000757;28;20043;-83
2022/05/18 03:08:10;;;;;;;17.30;10.00;;;14.80;99.90;;;;;;4997073;28;20039;-83
2022/05/18 03:10:36;;;;;;;18.38;10.05;;;14.80;99.90;;;;;;4998118;28;20498;-83
2022/05/18 03:13:02;;;;;;;16.08;10.23;;;14.80;99.90;;;;;;4994277;28;20485;-83
2022/05/18 03:15:28;;;;;;;15.02;10.40;;;14.70;99.90;;;;;;4994025;28;20061;-83
2022/05/18 03:17:53;;;;;;;15.50;9.70;;;14.60;99.90;;;;;;4993840;28;20034;-84
2022/05/18 03:25:48;;;;;;;12.90;9.20;;;14.60;99.90;;;;;;4992893;28;20077;-83
2022/05/18 03:28:13;;;;;;;14.98;9.73;;;14.60;99.90;;;;;;4995747;28;20478;-83
2022/05/18 03:30:39;;;;;;;15.88;9.05;;;14.50;99.90;;;;;;4996566;28;20046;-83
2022/05/18 03:33:05;;;;;;;17.23;10.65;;;14.60;99.90;;;;;;4996184;28;20050;-83
2022/05/18 03:35:31;;;;;;;16.52;10.63;;;14.50;99.90;;;;;;4996223;28;20465;-83
2022/05/18 03:37:56;;;;;;;15.60;10.48;;;14.50;99.90;;;;;;4996304;28;20061;-83
2022/05/18 03:40:22;;;;;;;16.40;10.20;;;14.50;99.90;;;;;;4996172;28;20054;-83
2022/05/18 03:42:48;;;;;;;17.88;10.48;;;14.50;99.90;;;;;;4995914;28;20173;-83
2022/05/18 03:45:13;;;;;;;16.92;10.60;;;14.50;99.90;;;;;;4995877;28;20092;-83
2022/05/18 03:47:41;;;;;;;15.48;10.43;;;14.50;99.90;;;;;;4995901;28;20047;-83
2022/05/18 03:50:07;;;;;;;15.35;10.07;;;14.50;99.90;;;;;;4995801;28;20050;-84
2022/05/18 03:52:33;;;;;;;15.65;10.75;;;14.50;99.90;;;;;;4996123;28;20061;-84
2022/05/18 03:54:58;;;;;;;16.40;10.15;;;14.50;99.90;;;;;;4996062;28;20038;-84
2022/05/18 03:57:24;;;;;;;18.85;10.45;;;14.50;99.90;;;;;;4995741;28;20052;-83
2022/05/18 03:59:50;;;;;;;13.68;10.32;;;14.50;99.90;;;;;;4996937;28;20386;-83
2022/05/18 04:02:15;;;;;;;16.23;10.27;;;14.60;99.90;;;;;;4995643;28;20465;-84
2022/05/18 04:04:42;;;;;;;16.63;9.98;;;14.60;99.90;;;;;;5017071;28;20030;-83
2022/05/18 04:07:08;;;;;;;18.70;10.45;;;14.60;99.90;;;;;;5012006;28;20552;-84
2022/05/18 04:09:34;;;;;;;18.98;10.43;;;14.60;99.90;;;;;;4995678;28;20046;-84
2022/05/18 04:12:01;;;;;;;16.38;11.48;;;14.60;99.90;;;;;;4979347;28;20057;-84
2022/05/18 04:14:27;;;;;;;18.88;10.45;;;14.60;99.90;;;;;;5003223;28;20042;-84
2022/05/18 04:16:52;;;;;;;14.32;10.00;;;14.70;99.90;;;;;;5006067;28;20060;-84
2022/05/18 04:19:18;;;;;;;17.92;10.57;;;14.60;99.90;;;;;;4995320;28;20046;-84
2022/05/18 04:21:49;;;;;;;17.70;10.25;;;14.60;99.90;;;;;;4995385;28;20062;-84
2022/05/18 04:24:15;;;;;;;18.08;11.25;;;14.60;99.90;;;;;;4995300;28;20042;-84
2022/05/18 04:26:40;;;;;;;17.73;10.90;;;14.60;99.90;;;;;;4995302;28;20137;-84
2022/05/18 04:29:06;;;;;;;18.83;10.43;;;14.70;99.90;;;;;;5000004;28;20042;-84
2022/05/18 04:31:31;;;;;;;16.52;10.15;;;14.60;99.90;;;;;;5000647;28;20104;-84
2022/05/18 04:33:57;;;;;;;18.25;11.18;;;14.70;99.90;;;;;;4996516;28;20046;-84
2022/05/18 04:36:23;;;;;;;18.40;10.07;;;14.70;99.90;;;;;;4995303;28;20054;-85
2022/05/18 04:38:48;;;;;;;17.23;11.10;;;14.80;99.90;;;;;;4996415;28;20124;-83
2022/05/18 04:41:14;;;;;;;15.40;11.15;;;14.80;99.90;;;;;;4996285;28;20054;-83
2022/05/18 04:43:40;;;;;;;17.63;10.60;;;14.80;99.90;;;;;;4994973;28;20105;-83
2022/05/18 04:46:07;;;;;;;16.67;11.73;;;14.80;99.90;;;;;;4996414;28;20043;-84
2022/05/18 04:48:34;;;;;;;16.30;11.40;;;14.90;99.90;;;;;;5009420;28;20494;-84
2022/05/18 04:51:04;;;;;;;18.70;11.13;;;14.90;99.90;;;;;;4997343;28;20165;-84
2022/05/18 04:53:29;;;;;;;16.85;11.63;;;15.00;99.90;;;;;;4996449;28;20121;-84
2022/05/18 04:55:55;;;;;;;19.02;11.55;;;15.00;99.90;;;;;;4996233;28;20077;-84
2022/05/18 04:58:22;;;;;;;17.80;11.32;;;15.00;99.90;;;;;;4994699;28;20133;-84
2022/05/18 05:00:58;;;;;;;18.73;11.73;;;15.10;99.90;;;;;;4994660;28;20493;-84
2022/05/18 05:03:24;;;;;;;17.85;12.10;;;15.10;99.90;;;;;;4978460;28;20042;-84
2022/05/18 05:05:49;;;;;;;18.50;12.05;;;15.30;99.90;;;;;;4994491;28;20050;-84
2022/05/18 05:08:15;;;;;;;22.70;12.60;;;15.30;99.90;;;;;;4994400;28;20065;-84
2022/05/18 05:10:41;;;;;;;17.55;11.52;;;15.50;99.90;;;;;;4994247;28;20074;-84
2022/05/18 05:13:06;;;;;;;18.55;12.25;;;15.60;99.90;;;;;;4995682;28;20050;-84
2022/05/18 05:15:32;;;;;;;18.27;12.35;;;15.70;99.90;;;;;;4994167;28;20549;-84
2022/05/18 05:17:58;;;;;;;18.77;12.45;;;15.80;99.90;;;;;;4994406;28;20054;-84
2022/05/18 05:20:24;;;;;;;23.05;13.65;;;16.10;99.90;;;;;;4994064;28;20482;-84
2022/05/18 05:22:49;;;;;;;21.95;13.70;;;16.20;99.90;;;;;;4994269;28;20092;-84
2022/05/18 05:25:15;;;;;;;20.00;13.93;;;16.20;99.90;;;;;;4994325;28;20383;-84
2022/05/18 05:27:41;;;;;;;19.20;13.40;;;16.50;99.90;;;;;;4994424;28;20398;-84
2022/05/18 05:30:08;;;;;;;23.67;14.27;;;16.70;99.90;;;;;;4994227;28;20057;-84
2022/05/18 05:32:35;;;;;;;21.20;13.95;;;16.80;99.90;;;;;;4995125;28;20047;-84
2022/05/18 05:35:01;;;;;;;20.25;13.23;;;16.90;99.90;;;;;;4993835;28;20039;-84
2022/05/18 05:37:27;;;;;;;17.63;12.60;;;17.10;99.90;;;;;;4995212;28;20042;-84
2022/05/18 05:39:53;;;;;;;17.50;11.43;;;17.20;99.90;;;;;;4993886;28;20053;-84
2022/05/18 05:42:18;;;;;;;18.25;11.82;;;17.40;99.90;;;;;;4993836;28;20050;-84
2022/05/18 05:44:44;;;;;;;19.27;12.30;;;17.60;99.90;;;;;;4993758;28;20140;-84
2022/05/18 05:47:11;;;;;;;17.60;12.45;;;17.70;99.90;;;;;;4993691;28;20050;-84
2022/05/18 05:49:42;;;;;;;18.80;12.48;;;17.80;99.90;;;;;;4993210;28;20125;-84
2022/05/18 05:52:09;;;;;;;17.88;11.52;;;17.90;99.90;;;;;;4993793;28;20042;-84
2022/05/18 05:54:35;;;;;;;19.38;11.60;;;18.00;99.90;;;;;;4994960;28;20057;-84
2022/05/18 05:57:04;;;;;;;17.90;11.82;;;18.10;99.90;;;;;;4977539;28;20054;-83
2022/05/18 05:59:35;;;;;;;17.85;11.82;;;18.10;99.90;;;;;;4994860;28;20061;-83
2022/05/18 06:02:03;;;;;;;17.90;12.35;;;18.20;99.90;;;;;;4994859;28;20039;-83
2022/05/18 06:04:30;;;;;;;18.15;12.27;;;18.20;99.90;;;;;;4993491;28;20050;-83
2022/05/18 06:06:55;;;;;;;19.15;11.73;;;18.10;99.90;;;;;;4993543;28;20054;-84
2022/05/18 06:09:21;;;;;;;20.95;12.40;;;18.10;99.90;;;;;;4993720;28;20061;-84
2022/05/18 06:11:48;;;;;;;17.90;12.05;;;18.10;99.90;;;;;;4977207;28;20053;-84
2022/05/18 06:14:14;;;;;;;17.90;12.20;;;18.20;99.90;;;;;;4993228;28;20093;-84
2022/05/18 06:16:40;;;;;;;15.15;10.98;;;18.40;99.90;;;;;;4993057;28;20050;-84
2022/05/18 06:19:06;;;;;;;14.75;10.77;;;18.60;99.90;;;;;;4993000;28;20448;-84
2022/05/18 06:21:31;;;;;;;15.13;10.52;;;18.70;99.90;;;;;;4993251;28;20141;-84
2022/05/18 06:23:57;;;;;;;17.50;10.85;;;18.90;99.90;;;;;;5001249;28;20056;-84
2022/05/18 06:26:25;;;;;;;11.98;9.38;;;19.00;99.90;;;;;;5004099;28;20136;-84
2022/05/18 06:28:51;;;;;;;15.20;9.68;;;19.20;99.90;;;;;;4994603;28;20406;-84
2022/05/18 06:31:17;;;;;;;14.95;9.55;;;19.30;99.90;;;;;;4993195;28;20042;-84
2022/05/18 06:33:42;;;;;;;15.25;10.57;;;19.40;99.90;;;;;;4993275;28;20062;-84
2022/05/18 06:36:08;;;;;;;17.05;9.82;;;19.50;99.90;;;;;;4993044;28;20538;-84
2022/05/18 06:38:34;;;;;;;16.80;10.63;;;19.60;99.90;;;;;;4978413;28;20050;-84
2022/05/18 06:43:43;;;;;;;17.10;10.60;;;19.80;99.90;;;;;;4993275;28;20080;-84
2022/05/18 06:46:09;;;;;;;15.23;10.18;;;19.80;99.90;;;;;;4994461;28;20470;-85
2022/05/18 06:48:35;;;;;;;15.02;10.13;;;19.90;99.90;;;;;;4993027;28;20048;-84
2022/05/18 06:51:01;;;;;;;16.75;11.10;;;19.90;99.90;;;;;;4992771;28;20046;-85
2022/05/18 06:53:26;;;;;;;15.63;10.63;;;20.10;99.90;;;;;;4992935;28;20042;-84
2022/05/18 06:55:52;;;;;;;15.60;10.40;;;20.20;99.90;;;;;;4993171;28;20054;-84
2022/05/18 06:58:18;;;;;;;19.65;10.98;;;20.40;99.90;;;;;;4994162;28;20525;-84
2022/05/18 07:00:44;;;;;;;17.25;10.35;;;20.40;99.90;;;;;;4994604;28;20085;-85
2022/05/18 07:03:11;;;;;;;15.10;10.52;;;20.60;99.90;;;;;;4996363;28;20474;-85
2022/05/18 07:05:36;;;;;;;14.82;10.68;;;20.70;99.90;;;;;;4996623;28;20088;-84
2022/05/18 07:08:06;;;;;;;16.20;11.20;;;20.80;99.90;;;;;;4980508;28;20046;-85
2022/05/18 07:10:32;;;;;;;15.15;10.77;;;20.90;99.90;;;;;;4982114;28;20050;-85
2022/05/18 07:12:57;;;;;;;16.58;10.23;;;21.10;99.90;;;;;;4982398;28;20049;-85
2022/05/18 07:15:23;;;;;;;17.90;10.50;;;21.30;99.90;;;;;;5003574;28;20046;-85
2022/05/18 07:17:49;;;;;;;15.02;9.95;;;21.50;99.90;;;;;;4980503;28;20057;-85
2022/05/18 07:20:15;;;;;;;14.77;10.23;;;21.80;99.90;;;;;;4980337;28;20397;-84
2022/05/18 07:22:41;;;;;;;15.05;9.55;;;21.90;99.90;;;;;;4996574;28;20070;-84
2022/05/18 07:25:07;;;;;;;17.23;9.32;;;21.90;99.90;;;;;;4997730;28;20047;-85
2022/05/18 07:27:32;;;;;;;12.90;9.48;;;21.80;99.90;;;;;;4980498;28;20045;-84
2022/05/18 07:29:58;;;;;;;12.55;9.30;;;21.80;99.90;;;;;;4996233;28;20054;-84
2022/05/18 07:32:24;;;;;;;13.85;9.55;;;21.80;99.90;;;;;;4998164;28;20073;-84
2022/05/18 07:34:55;;;;;;;14.13;9.40;;;21.60;99.90;;;;;;4996490;28;20100;-84
2022/05/18 07:37:22;;;;;;;14.18;9.63;;;21.50;99.90;;;;;;4997431;28;20120;-84
2022/05/18 07:39:47;;;;;;;14.82;10.38;;;21.50;99.90;;;;;;4997457;28;20078;-84
2022/05/18 07:42:13;;;;;;;15.60;10.60;;;21.60;99.90;;;;;;4995952;28;20565;-85
2022/05/18 07:44:39;;;;;;;16.90;10.10;;;21.70;99.90;;;;;;4995978;28;20128;-84
2022/05/18 07:47:06;;;;;;;15.85;10.13;;;21.80;99.90;;;;;;4996176;28;20076;-84
2022/05/18 07:49:40;;;;;;;15.43;10.82;;;21.90;99.90;;;;;;4995985;28;20486;-85
2022/05/18 07:52:06;;;;;;;23.27;11.17;;;21.90;99.90;;;;;;4995976;28;20046;-85
2022/05/18 07:54:33;;;;;;;16.67;10.52;;;22.00;99.90;;;;;;4995931;28;20052;-84
2022/05/18 07:56:58;;;;;;;16.00;11.02;;;22.10;99.90;;;;;;4996112;28;20529;-84
2022/05/18 07:59:24;;;;;;;14.40;10.63;;;22.20;99.90;;;;;;4995895;28;20046;-84
2022/05/18 08:01:51;;;;;;;15.05;10.50;;;22.40;99.90;;;;;;4995956;28;20478;-84
2022/05/18 08:04:16;;;;;;;15.70;9.77;;;22.60;99.90;;;;;;4995692;28;20046;-84
2022/05/18 08:06:52;;;;;;;16.35;10.82;;;22.70;99.90;;;;;;4995858;28;20446;-85
2022/05/18 08:09:22;;;;;;;14.88;10.02;;;22.80;99.90;;;;;;4996173;28;20050;-84
2022/05/18 08:17:17;;;;;;;16.65;10.48;;;23.00;99.90;;;;;;4996558;28;20127;-84
2022/05/18 08:19:43;;;;;;;14.88;10.25;;;23.00;99.90;;;;;;4978768;28;20065;-85
2022/05/18 08:22:09;;;;;;;15.35;10.13;;;;;;;;;;4995428;28;20039;-85
2022/05/18 08:24:36;;;;;;;15.90;10.35;;;;;;;;;;4995209;28;20046;-85
2022/05/18 08:27:04;;;;;;;20.15;10.88;;;;;;;;;;4995273;28;20046;-84
2022/05/18 08:29:30;;;;;;;16.75;11.50;;;;;;;;;;4995204;28;20062;-84
2022/05/18 08:31:56;;;;;;;18.27;10.13;;;;;;;;;;4995238;28;20136;-84
2022/05/18 08:34:22;;;;;;;13.73;10.38;;;;;;;;;;4995168;28;20042;-85
2022/05/18 08:36:50;;;;;;;14.93;10.48;;;;;;;;;;4994813;28;20398;-85
2022/05/18 08:39:16;;;;;;;18.98;11.02;;;;;;;;;;4994924;28;20046;-85
2022/05/18 08:41:46;;;;;;;17.13;11.27;;;;;;;;;;4979101;28;20039;-85
2022/05/18 08:44:31;;;;;;;20.20;12.13;;;;;;;;;;4995271;28;20117;-85
2022/05/18 08:47:03;;;;;;;17.25;11.73;;;;;;;;;;5002859;28;20125;-85
2022/05/18 08:49:29;;;;;;;15.43;10.75;;;;;;;;;;4998203;28;20046;-85
2022/05/18 08:52:17;;;;;;;16.50;12.88;;;;;;;;;;4994725;28;20046;-85
2022/05/18 08:54:43;;;;;;;17.98;12.60;;;;;;;;;;4994803;28;20087;-85
2022/05/18 08:57:28;;;;;;;19.60;12.63;;;;;;;;;;4978694;28;20053;-85
2022/05/18 08:59:57;;;;;;;18.90;12.25;;;;;;;;;;4994756;28;20050;-85
2022/05/18 09:02:27;;;;;;;16.35;11.60;;;;;;;;;;4995929;28;20057;-85
2022/05/18 09:04:55;;;;;;;17.17;12.88;;;;;;;;;;5002373;28;20061;-84
2022/05/18 09:07:24;;;;;;;18.48;12.70;;;;;;;;;;5002794;28;20109;-85
2022/05/18 09:10:14;;;;;;;20.30;13.40;;;;;;;;;;5000314;28;20050;-85
2022/05/18 09:12:42;;;;;;;23.63;12.82;;;;;;;;;;4978079;28;20042;-85
2022/05/18 09:15:09;;;;;;;20.45;13.32;;;;;;;;;;4994475;28;20038;-85
2022/05/18 09:17:54;;;;;;;20.38;12.50;;;;;;;;;;4994050;28;20461;-85
2022/05/18 09:20:20;;;;;;;;;;;;;;;;;;4994300;28;20050;-85
2022/05/18 09:22:58;;;;;;;19.98;12.23;;;;;;;;;;4994154;28;19957;-85
2022/05/18 09:25:38;;;;;;;20.95;13.10;;;;;;;;;;4993628;28;20386;-85
2022/05/18 09:28:04;;;;;;;19.52;12.95;;;;;;;;;;4977686;28;20460;-85
2022/05/18 09:30:48;;;;;;;16.50;12.38;;;;;;;;;;4993917;28;20490;-85
2022/05/18 09:33:17;;;;;;;19.30;12.80;;;;;;;;;;4993900;28;20054;-85
2022/05/18 09:35:55;;;;;;;19.38;12.80;;;;;;;;;;4993952;28;20050;-85
2022/05/18 09:38:26;;;;;;;17.13;12.52;;;;;;;;;;4977473;28;20056;-85
2022/05/18 09:40:52;;;;;;;20.33;13.10;;;;;;;;;;4993929;28;20437;-85
2022/05/18 09:43:26;;;;;;;16.67;12.40;;;;;;;;;;4978679;28;20382;-85
2022/05/18 09:45:52;;;;;;;18.25;12.98;;;;;;;;;;4993665;28;20133;-85
2022/05/18 09:48:22;;;;;;;17.85;13.13;;;;;;;;;;4977196;28;20054;-85
2022/05/18 09:50:51;;;;;;;18.67;13.98;;;;;;;;;;4993521;28;20490;-85
2022/05/18 09:53:17;;;;;;;18.80;13.23;;;;;;;;;;4993415;28;20053;-85
2022/05/18 09:55:45;;;;;;;18.00;12.98;;;;;;;;;;4977556;28;20556;-85
2022/05/18 09:58:31;;;;;;;17.08;13.55;;;;;;;;;;4993438;28;20046;-85
2022/05/18 10:09:37;;;;;;;16.30;11.00;;;;;;;;;;4994352;28;20496;-85
2022/05/18 10:12:24;;;;;;;16.45;11.40;;;;;;;;;;4993467;28;20082;-85
2022/05/18 10:14:51;;;;;;;15.57;11.35;;;;;;;;;;4993394;28;20502;-86
2022/05/18 10:17:20;;;;;;;14.95;12.27;;;;;;;;;;4976870;28;20049;-86
2022/05/18 10:19:48;;;;;;;15.68;12.23;;;;;;;;;;4992673;28;20108;-85
2022/05/18 10:22:19;;;;;;;17.25;12.05;;;;;;;;;;4992919;28;20051;-84
2022/05/18 10:24:49;;;;;;;17.15;12.55;;;;;;;;;;4993199;28;20386;-85
2022/05/18 10:27:18;;;;;;;17.50;12.40;;;;;;;;;;4993368;28;20147;-85
2022/05/18 10:30:04;;;;;;;16.08;11.30;;;;;;;;;;4992803;28;20180;-85
2022/05/18 10:32:31;;;;;;;15.35;12.45;;;;;;;;;;4992906;28;20057;-85
2022/05/18 10:34:58;;;;;;;21.30;11.93;;;;;;;;;;4976656;28;20078;-86
2022/05/18 10:37:30;;;;;;;15.82;11.70;;;;;;;;;;4992749;28;20046;-85
2022/05/18 10:39:57;;;;;;;14.98;11.27;;;;;;;;;;4976658;28;20101;-85
2022/05/18 10:42:50;;;;;;;14.10;10.55;;;;;;;;;;4992941;28;20054;-85
2022/05/18 10:45:22;;;;;;;10.80;7.68;;;;;;;;;;4991443;28;20061;-85
2022/05/18 10:47:50;;;;;;;11.70;7.97;;;;;;;;;;4992995;28;20494;-85
2022/05/18 10:50:24;;;;;;;13.48;7.53;;;;;;;;;;4992686;28;20042;-85
2022/05/18 10:52:51;;;;;;;12.73;9.38;;;;;;;;;;4993228;28;20061;-85
2022/05/18 10:55:19;;;;;;;14.48;9.40;;;;;;;;;;4993059;28;20046;-85
2022/05/18 10:58:00;;;;;;;12.50;8.50;;;;;;;;;;4976504;28;20058;-85
2022/05/18 11:00:31;;;;;;;15.88;10.48;;;;;;;;;;4993970;28;20597;-86
2022/05/18 11:03:04;;;;;;;13.98;10.43;;;;;;;;;;4976518;28;20046;-85
2022/05/18 11:05:36;;;;;;;15.88;11.70;;;;;;;;;;4992950;28;20055;-85
2022/05/18 11:08:03;;;;;;;17.38;13.50;;;;;;;;;;4993189;28;20046;-85
2022/05/18 11:10:35;;;;;;;17.60;13.55;;;;;;;;;;4994466;28;20046;-85
2022/05/18 11:13:05;;;;;;;19.13;14.18;;;;;;;;;;4998450;28;20046;-85
2022/05/18 11:15:41;;;;;;;19.63;14.70;;;;;;;;;;4995625;28;20129;-85
2022/05/18 11:18:32;;;;;;;22.23;14.45;;;;;;;;;;4992815;28;20077;-85
2022/05/18 11:21:03;;;;;;;22.50;14.63;;;;;;;;;;4995498;28;20051;-85
2022/05/18 11:23:29;;;;;;;22.25;13.95;;;;;;;;;;5000682;28;20045;-85
2022/05/18 11:26:14;;;;;;;22.10;15.55;;;;;;;;;;4998822;28;20046;-85
2022/05/18 11:28:55;;;;;;;20.05;14.23;;;;;;;;;;5016266;28;20033;-85
2022/05/18 11:31:38;;;;;;;18.95;13.02;;;;;;;;;;4992943;28;20046;-85
2022/05/18 11:34:04;;;;;;;16.85;13.32;;;;;;;;;;5003099;28;20042;-85
2022/05/18 11:36:54;;;;;;;19.38;14.23;;;;;;;;;;5013945;28;20051;-85
2022/05/18 11:39:38;;;;;;;19.58;14.32;;;;;;;;;;4994771;28;20058;-85
2022/05/18 11:42:07;;;;;;;22.00;14.93;;;;;;;;;;4992673;28;20042;-85
2022/05/18 11:44:36;;;;;;;22.40;15.75;;;;;;;;;;4992756;28;20406;-85
2022/05/18 11:47:08;;;;;;;23.10;18.00;;;;;;;;;;4992741;28;20085;-85
2022/05/18 11:49:59;;;;;;;24.90;16.25;;;;;;;;;;4985264;28;20109;-85
2022/05/18 11:52:35;;;;;;;23.05;15.43;;;;;;;;;;4995808;28;20050;-85
2022/05/18 11:55:04;;;;;;;20.38;14.70;;;;;;;;;;4995805;28;20054;-85
2022/05/18 11:57:30;;;;;;;22.33;16.20;;;;;;;;;;4995596;28;20108;-85
2022/05/18 12:00:10;;;;;;;23.23;17.30;;;;;;;;;;4995687;28;20047;-85
2022/05/18 12:02:36;;;;;;;21.52;15.98;;;;;;;;;;4995586;28;20080;-85
2022/05/18 12:05:21;;;;;;;21.75;16.48;;;;;;;;;;4995761;28;20497;-85
2022/05/18 12:07:51;;;;;;;22.83;15.40;;;;;;;;;;4995665;28;20046;-85
2022/05/18 12:10:20;;;;;;;19.23;15.10;;;;;;;;;;4995773;28;20086;-85
2022/05/18 12:12:53;;;;;;;19.67;14.77;;;;;;;;;;4995462;28;20478;-85
2022/05/18 12:15:23;;;;;;;21.77;14.65;;;;;;;;;;4995189;28;20105;-85
2022/05/18 12:17:52;;;;;;;24.48;13.40;;;;;;;;;;4995320;28;20054;-85
2022/05/18 12:20:18;;;;;;;20.02;14.48;;;;;;;;;;4995139;28;20133;-85
2022/05/18 12:22:47;;;;;;;22.40;15.82;;;;;;;;;;4996560;28;20093;-84
2022/05/18 12:25:14;;;;;;;23.15;15.50;;;;;;;;;;4995409;28;20045;-85
2022/05/18 12:27:41;;;;;;;20.02;15.00;;;;;;;;;;4995207;28;20054;-85
2022/05/18 12:30:08;;;;;;;21.35;15.07;;;;;;;;;;4996390;28;20485;-85
2022/05/18 12:32:34;;;;;;;22.52;15.35;;;;;;;;;;4995641;28;20046;-85
2022/05/18 12:35:06;;;;;;;22.73;13.75;;;;;;;;;;4995022;28;20050;-85
2022/05/18 12:37:36;;;;;;;20.48;12.65;;;;;;;;;;4995042;28;20050;-85
2022/05/18 12:40:15;;;;;;;19.67;13.32;;;;;;;;;;4995293;28;20057;-84
2022/05/18 12:42:42;;;;;;;20.08;13.52;;;;;;;;;;4996552;28;20085;-85
2022/05/18 12:45:22;;;;;;;19.52;12.57;;;;;;;;;;4996091;28;20046;-85
2022/05/18 12:47:52;;;;;;;17.65;11.98;;;;;;;;;;4995120;28;20061;-85
2022/05/18 12:50:40;;;;;;;17.65;12.43;;;;;;;;;;4994974;28;20100;-85
2022/05/18 12:53:22;;;;;;;20.75;11.90;;;;;;;;;;4994689;28;20054;-85
2022/05/18 12:55:51;;;;;;;17.88;12.05;;;;;;;;;;4994717;28;20051;-84
2022/05/18 12:58:17;;;;;;;24.95;14.52;;;;;;;;;;4994580;28;20046;-85
2022/05/18 13:00:52;;;;;;;20.40;14.20;;;;;;;;;;4993818;28;20046;-84
2022/05/18 13:03:18;;;;;;;;;;;;;;;;;;4995148;28;20486;-85
2022/05/18 13:05:48;;;;;;;18.98;13.60;;;;;;;;;;4978295;28;19973;-84
2022/05/18 13:08:17;;;;;;;22.75;14.18;;;;;;;;;;4995745;28;20046;-84
2022/05/18 13:11:02;;;;;;;21.83;13.48;;;;;;;;;;4994653;28;20138;-85
2022/05/18 13:13:34;;;;;;;21.95;14.05;;;;;;;;;;4994539;28;20050;-85
2022/05/18 13:16:01;;;;;;;18.85;13.38;;;;;;;;;;4994703;28;20394;-85
2022/05/18 13:18:34;;;;;;;21.92;14.05;;;;;;;;;;4994302;28;20493;-85
2022/05/18 13:21:00;;;;;;;19.05;12.80;;;;;;;;;;4994147;28;20478;-85
2022/05/18 13:23:31;;;;;;;17.13;11.57;;;;;;;;;;4994855;28;20438;-85
2022/05/18 13:26:22;;;;;;;17.35;11.25;;;;;;;;;;4994263;28;20042;-85
2022/05/18 13:28:48;;;;;;;18.30;11.18;;;;;;;;;;4919925;29;20123;-84
2022/05/18 13:31:14;;;;;;;16.55;11.10;;;;;;;;;;4921146;29;20055;-85
2022/05/18 13:34:02;;;;;;;19.98;11.25;;;;;;;;;;4935321;29;20492;-84
2022/05/18 13:36:35;;;;;;;17.95;10.93;;;;;;;;;;4922750;29;20391;-84
2022/05/18 13:39:04;;;;;;;17.48;10.73;;;;;;;;;;4923757;29;20056;-85
2022/05/18 13:41:31;;;;;;;18.42;11.40;;;;;;;;;;4935090;29;20499;-85
2022/05/18 13:44:02;;;;;;;18.17;10.98;;;;;;;;;;4919277;29;20127;-84
2022/05/18 13:46:29;;;;;;;17.60;10.63;;;;;;;;;;4935047;29;20067;-84